Hlavní strana
METAR-TAF:

METAR-TAF

Letiště :

O'Hare International Airport

Chicago, Illinois, Spojené státy americké

zeměpisná šířka: 41-58-47N, zeměpisná délka: 087-54-16W, výška: 203 m

Aktuální stav počasí

Zpráva byla vytvořena před 28 minutami, v 15:51 UTC
Východoseverovýchodní vítr 10 kt
Teplota 25°C
Vlhkost vzduchu 41%
Tlak 1020 hPa
Viditelnost: 16.1 km
Skoro jasno ve výšce 6000 ft
Skoro jasno ve výšce 25000 ft

METAR: KORD 181551Z 06010KT 10SM FEW060 FEW250 25/11 A3013 RMK AO2 SLP198 T02500106

Čas: 11:19 (16:19 UTC)

Předpověď počasí

Zpráva byla vytvořena před 1 hodinou a 23 minutami, v 14:56 UTC
Předpověď platná od 18 v 15 UTC do 19 v 18 UTC
Východoseverovýchodní vítr 11 kt
Viditelnost: 10 km
Skoro jasno ve výšce 25000 ft
Od 19 v 0300 UTC
Východní vítr 4 kt
Viditelnost: 10 km
Skoro jasno ve výšce 25000 ft
Od 19 v 1100 UTC
Jihovýchodní vítr 4 kt
Viditelnost: 10 km
Skoro jasno ve výšce 25000 ft

TAF: KORD 181456Z 1815/1918 06011KT P6SM FEW250 FM190300 08004KT P6SM FEW250 FM191100 13004KT P6SM FEW250

Stav a předpovědi počasí z více než 4 000 letišť (zprávy METAR a TAF).

Červené a žluté tečky na mapě představují dostupné meteorologické stanice.

Když kurzor umístíte na tečku, zobrazí se název stanice.

Pak kliknutím zobrazíte stav a předpověď počasí.

Chcete-li změnit mapu, kliknutím na zelené tlačítko se znaménkem +mapu přiblížíte, kliknutím na zelené tlačítko se znaménkem – mapu oddálíte a kliknutím na zelené šipky přejdete na sousední mapy.


METAR-TAF: